sensor_id;sensor_type;location;lat;lon;timestamp;P1;durP1;ratioP1;P2;durP2;ratioP2
64966;SDS011;51710;38.732;-121.358;2022-10-16T00:00:42;5.93;;;3.38;;
64966;SDS011;51710;38.732;-121.358;2022-10-16T00:03:09;6.65;;;3.50;;
64966;SDS011;51710;38.732;-121.358;2022-10-16T00:05:40;7.03;;;3.78;;
64966;SDS011;51710;38.732;-121.358;2022-10-16T00:08:09;5.35;;;3.63;;
64966;SDS011;51710;38.732;-121.358;2022-10-16T00:10:37;9.30;;;3.28;;
64966;SDS011;51710;38.732;-121.358;2022-10-16T00:13:06;5.72;;;3.15;;
64966;SDS011;51710;38.732;-121.358;2022-10-16T00:15:34;8.35;;;3.53;;
64966;SDS011;51710;38.732;-121.358;2022-10-16T00:18:04;7.05;;;3.40;;
64966;SDS011;51710;38.732;-121.358;2022-10-16T00:20:33;8.13;;;3.50;;
64966;SDS011;51710;38.732;-121.358;2022-10-16T00:23:03;8.30;;;3.40;;
64966;SDS011;51710;38.732;-121.358;2022-10-16T00:25:31;6.82;;;3.28;;
64966;SDS011;51710;38.732;-121.358;2022-10-16T00:28:00;6.30;;;3.40;;
64966;SDS011;51710;38.732;-121.358;2022-10-16T00:30:27;7.13;;;2.95;;
64966;SDS011;51710;38.732;-121.358;2022-10-16T00:32:55;4.78;;;2.55;;
64966;SDS011;51710;38.732;-121.358;2022-10-16T00:35:22;6.93;;;3.08;;
64966;SDS011;51710;38.732;-121.358;2022-10-16T00:37:49;4.80;;;3.10;;
64966;SDS011;51710;38.732;-121.358;2022-10-16T00:40:16;5.65;;;3.13;;
64966;SDS011;51710;38.732;-121.358;2022-10-16T00:42:43;4.95;;;3.10;;
64966;SDS011;51710;38.732;-121.358;2022-10-16T00:45:09;6.40;;;2.75;;
64966;SDS011;51710;38.732;-121.358;2022-10-16T00:47:40;5.28;;;2.60;;
64966;SDS011;51710;38.732;-121.358;2022-10-16T00:50:13;5.43;;;2.65;;
64966;SDS011;51710;38.732;-121.358;2022-10-16T00:52:53;4.47;;;2.50;;
64966;SDS011;51710;38.732;-121.358;2022-10-16T00:55:21;5.65;;;2.55;;
64966;SDS011;51710;38.732;-121.358;2022-10-16T00:57:48;5.95;;;2.60;;
64966;SDS011;51710;38.732;-121.358;2022-10-16T01:00:18;6.68;;;2.90;;
64966;SDS011;51710;38.732;-121.358;2022-10-16T01:02:58;7.07;;;2.80;;
64966;SDS011;51710;38.732;-121.358;2022-10-16T01:05:30;4.22;;;2.33;;
64966;SDS011;51710;38.732;-121.358;2022-10-16T01:08:13;4.60;;;2.38;;
64966;SDS011;51710;38.732;-121.358;2022-10-16T01:13:21;4.10;;;2.22;;
64966;SDS011;51710;38.732;-121.358;2022-10-16T01:16:01;6.40;;;2.50;;
64966;SDS011;51710;38.732;-121.358;2022-10-16T01:18:43;5.25;;;2.58;;
64966;SDS011;51710;38.732;-121.358;2022-10-16T01:21:26;5.32;;;2.40;;
64966;SDS011;51710;38.732;-121.358;2022-10-16T01:29:34;6.43;;;2.67;;
64966;SDS011;51710;38.732;-121.358;2022-10-16T01:35:05;6.45;;;2.92;;
64966;SDS011;51710;38.732;-121.358;2022-10-16T01:37:52;6.35;;;2.63;;
64966;SDS011;51710;38.732;-121.358;2022-10-16T01:40:19;5.93;;;2.70;;
64966;SDS011;51710;38.732;-121.358;2022-10-16T01:42:52;5.95;;;2.58;;
64966;SDS011;51710;38.732;-121.358;2022-10-16T01:45:29;7.10;;;2.20;;
64966;SDS011;51710;38.732;-121.358;2022-10-16T01:47:58;6.93;;;2.67;;
64966;SDS011;51710;38.732;-121.358;2022-10-16T01:50:31;4.13;;;2.80;;
64966;SDS011;51710;38.732;-121.358;2022-10-16T01:53:02;5.07;;;2.92;;
64966;SDS011;51710;38.732;-121.358;2022-10-16T01:55:32;7.05;;;2.78;;
64966;SDS011;51710;38.732;-121.358;2022-10-16T01:58:03;9.07;;;3.67;;
64966;SDS011;51710;38.732;-121.358;2022-10-16T02:00:33;6.03;;;2.63;;
64966;SDS011;51710;38.732;-121.358;2022-10-16T02:03:03;5.78;;;2.50;;
64966;SDS011;51710;38.732;-121.358;2022-10-16T02:06:13;5.78;;;3.17;;
64966;SDS011;51710;38.732;-121.358;2022-10-16T02:08:22;5.18;;;2.78;;
64966;SDS011;51710;38.732;-121.358;2022-10-16T02:10:54;4.75;;;3.00;;
64966;SDS011;51710;38.732;-121.358;2022-10-16T02:13:24;6.13;;;2.60;;
64966;SDS011;51710;38.732;-121.358;2022-10-16T02:15:56;4.75;;;2.40;;
64966;SDS011;51710;38.732;-121.358;2022-10-16T02:18:24;7.03;;;2.78;;
64966;SDS011;51710;38.732;-121.358;2022-10-16T02:23:45;6.38;;;2.67;;
64966;SDS011;51710;38.732;-121.358;2022-10-16T02:26:13;5.00;;;2.90;;
64966;SDS011;51710;38.732;-121.358;2022-10-16T02:28:52;6.22;;;2.85;;
64966;SDS011;51710;38.732;-121.358;2022-10-16T02:31:27;6.75;;;2.67;;
64966;SDS011;51710;38.732;-121.358;2022-10-16T02:33:57;7.47;;;2.70;;
64966;SDS011;51710;38.732;-121.358;2022-10-16T02:36:26;4.32;;;2.60;;
64966;SDS011;51710;38.732;-121.358;2022-10-16T02:38:53;7.38;;;2.70;;
64966;SDS011;51710;38.732;-121.358;2022-10-16T02:41:21;6.00;;;2.90;;
64966;SDS011;51710;38.732;-121.358;2022-10-16T02:43:48;4.15;;;2.10;;
64966;SDS011;51710;38.732;-121.358;2022-10-16T02:46:15;5.13;;;2.60;;
64966;SDS011;51710;38.732;-121.358;2022-10-16T02:48:43;7.07;;;3.00;;
64966;SDS011;51710;38.732;-121.358;2022-10-16T02:51:10;5.78;;;2.85;;
64966;SDS011;51710;38.732;-121.358;2022-10-16T02:53:38;5.32;;;2.50;;
64966;SDS011;51710;38.732;-121.358;2022-10-16T02:56:04;5.38;;;2.60;;
64966;SDS011;51710;38.732;-121.358;2022-10-16T02:58:33;6.75;;;2.80;;
64966;SDS011;51710;38.732;-121.358;2022-10-16T03:00:59;4.82;;;2.80;;
64966;SDS011;51710;38.732;-121.358;2022-10-16T03:03:26;6.68;;;2.67;;
64966;SDS011;51710;38.732;-121.358;2022-10-16T03:05:52;7.05;;;2.80;;
64966;SDS011;51710;38.732;-121.358;2022-10-16T03:08:19;5.88;;;3.28;;
64966;SDS011;51710;38.732;-121.358;2022-10-16T03:10:49;5.75;;;2.55;;
64966;SDS011;51710;38.732;-121.358;2022-10-16T03:13:16;5.63;;;3.03;;
64966;SDS011;51710;38.732;-121.358;2022-10-16T03:15:45;4.60;;;2.80;;
64966;SDS011;51710;38.732;-121.358;2022-10-16T03:18:13;5.20;;;3.05;;
64966;SDS011;51710;38.732;-121.358;2022-10-16T03:20:39;7.18;;;3.20;;
64966;SDS011;51710;38.732;-121.358;2022-10-16T03:23:06;6.88;;;3.00;;
64966;SDS011;51710;38.732;-121.358;2022-10-16T03:25:34;6.78;;;3.03;;
64966;SDS011;51710;38.732;-121.358;2022-10-16T03:28:01;5.97;;;2.70;;
64966;SDS011;51710;38.732;-121.358;2022-10-16T03:30:28;6.18;;;3.17;;
64966;SDS011;51710;38.732;-121.358;2022-10-16T03:32:54;6.68;;;2.67;;
64966;SDS011;51710;38.732;-121.358;2022-10-16T03:35:21;6.50;;;3.00;;
64966;SDS011;51710;38.732;-121.358;2022-10-16T03:37:49;7.75;;;2.90;;
64966;SDS011;51710;38.732;-121.358;2022-10-16T03:40:17;7.90;;;3.17;;
64966;SDS011;51710;38.732;-121.358;2022-10-16T03:42:44;7.78;;;3.30;;
64966;SDS011;51710;38.732;-121.358;2022-10-16T03:45:11;8.30;;;3.22;;
64966;SDS011;51710;38.732;-121.358;2022-10-16T03:47:38;9.07;;;3.55;;
64966;SDS011;51710;38.732;-121.358;2022-10-16T03:50:05;5.97;;;3.42;;
64966;SDS011;51710;38.732;-121.358;2022-10-16T03:52:32;5.63;;;3.28;;
64966;SDS011;51710;38.732;-121.358;2022-10-16T03:54:59;6.05;;;3.08;;
64966;SDS011;51710;38.732;-121.358;2022-10-16T03:57:25;6.30;;;3.35;;
64966;SDS011;51710;38.732;-121.358;2022-10-16T03:59:52;6.95;;;3.83;;
64966;SDS011;51710;38.732;-121.358;2022-10-16T04:02:19;6.30;;;3.22;;
64966;SDS011;51710;38.732;-121.358;2022-10-16T04:04:46;5.70;;;3.47;;
64966;SDS011;51710;38.732;-121.358;2022-10-16T04:07:14;6.32;;;3.35;;
64966;SDS011;51710;38.732;-121.358;2022-10-16T04:09:40;6.97;;;3.30;;
64966;SDS011;51710;38.732;-121.358;2022-10-16T04:12:07;9.88;;;4.50;;
64966;SDS011;51710;38.732;-121.358;2022-10-16T04:14:35;8.77;;;4.22;;
64966;SDS011;51710;38.732;-121.358;2022-10-16T04:17:01;9.27;;;3.85;;
64966;SDS011;51710;38.732;-121.358;2022-10-16T04:19:28;10.10;;;3.85;;
64966;SDS011;51710;38.732;-121.358;2022-10-16T04:21:55;7.20;;;3.80;;
64966;SDS011;51710;38.732;-121.358;2022-10-16T04:24:22;7.60;;;3.92;;
64966;SDS011;51710;38.732;-121.358;2022-10-16T04:26:50;6.57;;;3.58;;
64966;SDS011;51710;38.732;-121.358;2022-10-16T04:29:17;12.05;;;3.90;;
64966;SDS011;51710;38.732;-121.358;2022-10-16T04:31:44;7.18;;;3.85;;
64966;SDS011;51710;38.732;-121.358;2022-10-16T04:34:12;6.60;;;3.55;;
64966;SDS011;51710;38.732;-121.358;2022-10-16T04:36:39;9.55;;;4.35;;
64966;SDS011;51710;38.732;-121.358;2022-10-16T04:39:05;8.73;;;3.70;;
64966;SDS011;51710;38.732;-121.358;2022-10-16T04:41:32;6.95;;;3.97;;
64966;SDS011;51710;38.732;-121.358;2022-10-16T04:43:59;8.35;;;4.38;;
64966;SDS011;51710;38.732;-121.358;2022-10-16T04:46:26;9.35;;;3.47;;
64966;SDS011;51710;38.732;-121.358;2022-10-16T04:48:53;8.98;;;3.83;;
64966;SDS011;51710;38.732;-121.358;2022-10-16T04:51:20;9.32;;;3.85;;
64966;SDS011;51710;38.732;-121.358;2022-10-16T04:53:46;10.43;;;4.20;;
64966;SDS011;51710;38.732;-121.358;2022-10-16T04:56:13;8.43;;;4.35;;
64966;SDS011;51710;38.732;-121.358;2022-10-16T04:58:40;7.15;;;3.55;;
64966;SDS011;51710;38.732;-121.358;2022-10-16T05:01:07;8.70;;;4.28;;
64966;SDS011;51710;38.732;-121.358;2022-10-16T05:03:34;8.30;;;4.35;;
64966;SDS011;51710;38.732;-121.358;2022-10-16T05:06:01;9.82;;;4.10;;
64966;SDS011;51710;38.732;-121.358;2022-10-16T05:08:29;7.82;;;3.95;;
64966;SDS011;51710;38.732;-121.358;2022-10-16T05:10:56;10.75;;;4.38;;
64966;SDS011;51710;38.732;-121.358;2022-10-16T05:13:22;9.27;;;4.40;;
64966;SDS011;51710;38.732;-121.358;2022-10-16T05:15:49;7.47;;;3.88;;
64966;SDS011;51710;38.732;-121.358;2022-10-16T05:18:16;7.88;;;3.88;;
64966;SDS011;51710;38.732;-121.358;2022-10-16T05:20:46;9.70;;;4.18;;
64966;SDS011;51710;38.732;-121.358;2022-10-16T05:23:13;12.68;;;4.40;;
64966;SDS011;51710;38.732;-121.358;2022-10-16T05:25:40;10.88;;;4.28;;
64966;SDS011;51710;38.732;-121.358;2022-10-16T05:28:06;9.25;;;3.80;;
64966;SDS011;51710;38.732;-121.358;2022-10-16T05:30:33;9.88;;;4.80;;
64966;SDS011;51710;38.732;-121.358;2022-10-16T05:33:00;10.82;;;4.60;;
64966;SDS011;51710;38.732;-121.358;2022-10-16T05:35:26;10.63;;;4.90;;
64966;SDS011;51710;38.732;-121.358;2022-10-16T05:37:53;8.80;;;4.50;;
64966;SDS011;51710;38.732;-121.358;2022-10-16T05:40:19;8.50;;;4.40;;
64966;SDS011;51710;38.732;-121.358;2022-10-16T05:42:46;7.95;;;4.38;;
64966;SDS011;51710;38.732;-121.358;2022-10-16T05:45:12;9.18;;;3.90;;
64966;SDS011;51710;38.732;-121.358;2022-10-16T05:47:39;9.52;;;4.78;;
64966;SDS011;51710;38.732;-121.358;2022-10-16T05:50:06;9.93;;;4.15;;
64966;SDS011;51710;38.732;-121.358;2022-10-16T05:52:33;10.75;;;4.22;;
64966;SDS011;51710;38.732;-121.358;2022-10-16T05:54:59;11.52;;;4.38;;
64966;SDS011;51710;38.732;-121.358;2022-10-16T05:57:26;12.27;;;4.80;;
64966;SDS011;51710;38.732;-121.358;2022-10-16T05:59:54;9.75;;;4.10;;
64966;SDS011;51710;38.732;-121.358;2022-10-16T06:02:20;6.18;;;3.60;;
64966;SDS011;51710;38.732;-121.358;2022-10-16T06:04:48;13.25;;;4.38;;
64966;SDS011;51710;38.732;-121.358;2022-10-16T06:07:14;9.95;;;4.32;;
64966;SDS011;51710;38.732;-121.358;2022-10-16T06:09:41;7.90;;;4.57;;
64966;SDS011;51710;38.732;-121.358;2022-10-16T06:12:09;8.13;;;3.95;;
64966;SDS011;51710;38.732;-121.358;2022-10-16T06:14:36;8.60;;;4.57;;
64966;SDS011;51710;38.732;-121.358;2022-10-16T06:17:02;10.93;;;4.78;;
64966;SDS011;51710;38.732;-121.358;2022-10-16T06:19:29;10.82;;;3.90;;
64966;SDS011;51710;38.732;-121.358;2022-10-16T06:21:56;9.88;;;4.20;;
64966;SDS011;51710;38.732;-121.358;2022-10-16T06:24:24;7.10;;;4.40;;
64966;SDS011;51710;38.732;-121.358;2022-10-16T06:26:51;9.18;;;5.25;;
64966;SDS011;51710;38.732;-121.358;2022-10-16T06:29:18;12.18;;;4.50;;
64966;SDS011;51710;38.732;-121.358;2022-10-16T06:31:45;10.40;;;4.85;;
64966;SDS011;51710;38.732;-121.358;2022-10-16T06:34:11;10.80;;;4.93;;
64966;SDS011;51710;38.732;-121.358;2022-10-16T06:36:38;9.20;;;4.72;;
64966;SDS011;51710;38.732;-121.358;2022-10-16T06:39:06;8.23;;;4.32;;
64966;SDS011;51710;38.732;-121.358;2022-10-16T06:41:35;9.77;;;4.22;;
64966;SDS011;51710;38.732;-121.358;2022-10-16T06:44:05;9.85;;;4.63;;
64966;SDS011;51710;38.732;-121.358;2022-10-16T06:46:33;10.73;;;5.03;;
64966;SDS011;51710;38.732;-121.358;2022-10-16T06:49:00;12.60;;;5.15;;
64966;SDS011;51710;38.732;-121.358;2022-10-16T06:51:26;9.95;;;5.10;;
64966;SDS011;51710;38.732;-121.358;2022-10-16T06:53:54;11.68;;;4.90;;
64966;SDS011;51710;38.732;-121.358;2022-10-16T06:56:25;11.55;;;5.10;;
64966;SDS011;51710;38.732;-121.358;2022-10-16T06:58:54;10.43;;;5.03;;
64966;SDS011;51710;38.732;-121.358;2022-10-16T07:01:22;11.43;;;4.90;;
64966;SDS011;51710;38.732;-121.358;2022-10-16T07:03:50;8.75;;;4.70;;
64966;SDS011;51710;38.732;-121.358;2022-10-16T07:06:18;10.80;;;4.60;;
64966;SDS011;51710;38.732;-121.358;2022-10-16T07:08:47;9.00;;;4.20;;
64966;SDS011;51710;38.732;-121.358;2022-10-16T07:11:15;11.65;;;4.70;;
64966;SDS011;51710;38.732;-121.358;2022-10-16T07:13:44;12.82;;;5.13;;
64966;SDS011;51710;38.732;-121.358;2022-10-16T07:16:13;12.57;;;5.25;;
64966;SDS011;51710;38.732;-121.358;2022-10-16T07:18:41;12.20;;;4.97;;
64966;SDS011;51710;38.732;-121.358;2022-10-16T07:21:14;12.43;;;5.40;;
64966;SDS011;51710;38.732;-121.358;2022-10-16T07:23:44;9.25;;;4.60;;
64966;SDS011;51710;38.732;-121.358;2022-10-16T07:26:12;11.30;;;5.32;;
64966;SDS011;51710;38.732;-121.358;2022-10-16T07:28:38;13.02;;;4.90;;
64966;SDS011;51710;38.732;-121.358;2022-10-16T07:31:06;10.40;;;4.50;;
64966;SDS011;51710;38.732;-121.358;2022-10-16T07:33:36;10.68;;;4.50;;
64966;SDS011;51710;38.732;-121.358;2022-10-16T07:36:04;11.43;;;5.00;;
64966;SDS011;51710;38.732;-121.358;2022-10-16T07:38:31;14.65;;;5.00;;
64966;SDS011;51710;38.732;-121.358;2022-10-16T07:40:59;14.15;;;4.82;;
64966;SDS011;51710;38.732;-121.358;2022-10-16T07:43:27;12.60;;;5.40;;
64966;SDS011;51710;38.732;-121.358;2022-10-16T07:45:55;14.70;;;5.72;;
64966;SDS011;51710;38.732;-121.358;2022-10-16T07:48:22;11.98;;;4.63;;
64966;SDS011;51710;38.732;-121.358;2022-10-16T07:50:56;8.90;;;4.78;;
64966;SDS011;51710;38.732;-121.358;2022-10-16T07:53:24;9.98;;;4.80;;
64966;SDS011;51710;38.732;-121.358;2022-10-16T07:55:52;13.35;;;5.35;;
64966;SDS011;51710;38.732;-121.358;2022-10-16T07:58:29;10.02;;;5.00;;
64966;SDS011;51710;38.732;-121.358;2022-10-16T08:00:56;11.93;;;4.57;;
64966;SDS011;51710;38.732;-121.358;2022-10-16T08:03:24;13.20;;;4.68;;
64966;SDS011;51710;38.732;-121.358;2022-10-16T08:05:51;10.70;;;4.40;;
64966;SDS011;51710;38.732;-121.358;2022-10-16T08:08:18;12.75;;;4.80;;
64966;SDS011;51710;38.732;-121.358;2022-10-16T08:10:45;9.85;;;4.45;;
64966;SDS011;51710;38.732;-121.358;2022-10-16T08:13:12;9.68;;;5.25;;
64966;SDS011;51710;38.732;-121.358;2022-10-16T08:15:41;9.95;;;4.50;;
64966;SDS011;51710;38.732;-121.358;2022-10-16T08:18:11;11.70;;;4.95;;
64966;SDS011;51710;38.732;-121.358;2022-10-16T08:20:40;9.63;;;4.88;;
64966;SDS011;51710;38.732;-121.358;2022-10-16T08:23:08;9.73;;;5.25;;
64966;SDS011;51710;38.732;-121.358;2022-10-16T08:25:37;13.07;;;5.10;;
64966;SDS011;51710;38.732;-121.358;2022-10-16T08:28:08;12.88;;;5.18;;
64966;SDS011;51710;38.732;-121.358;2022-10-16T08:30:36;9.80;;;5.13;;
64966;SDS011;51710;38.732;-121.358;2022-10-16T08:33:03;11.85;;;5.65;;
64966;SDS011;51710;38.732;-121.358;2022-10-16T08:35:32;11.93;;;4.97;;
64966;SDS011;51710;38.732;-121.358;2022-10-16T08:37:59;11.10;;;4.60;;
64966;SDS011;51710;38.732;-121.358;2022-10-16T08:40:28;12.48;;;5.07;;
64966;SDS011;51710;38.732;-121.358;2022-10-16T08:43:19;11.13;;;4.65;;
64966;SDS011;51710;38.732;-121.358;2022-10-16T08:48:46;11.73;;;4.80;;
64966;SDS011;51710;38.732;-121.358;2022-10-16T08:53:57;12.02;;;5.50;;
64966;SDS011;51710;38.732;-121.358;2022-10-16T08:56:27;13.33;;;5.77;;
64966;SDS011;51710;38.732;-121.358;2022-10-16T08:58:55;11.63;;;4.50;;
64966;SDS011;51710;38.732;-121.358;2022-10-16T09:01:24;11.50;;;5.53;;
64966;SDS011;51710;38.732;-121.358;2022-10-16T09:06:44;11.75;;;5.40;;
64966;SDS011;51710;38.732;-121.358;2022-10-16T09:20:19;10.45;;;4.90;;
64966;SDS011;51710;38.732;-121.358;2022-10-16T09:25:31;12.73;;;5.95;;
64966;SDS011;51710;38.732;-121.358;2022-10-16T09:27:59;9.55;;;4.70;;
64966;SDS011;51710;38.732;-121.358;2022-10-16T09:30:27;12.32;;;5.65;;
64966;SDS011;51710;38.732;-121.358;2022-10-16T09:32:55;9.27;;;4.93;;
64966;SDS011;51710;38.732;-121.358;2022-10-16T09:35:31;11.43;;;4.90;;
64966;SDS011;51710;38.732;-121.358;2022-10-16T09:38:04;10.52;;;5.15;;
64966;SDS011;51710;38.732;-121.358;2022-10-16T09:40:36;13.25;;;5.28;;
64966;SDS011;51710;38.732;-121.358;2022-10-16T09:46:09;9.57;;;5.40;;
64966;SDS011;51710;38.732;-121.358;2022-10-16T09:48:54;11.27;;;4.80;;
64966;SDS011;51710;38.732;-121.358;2022-10-16T09:51:28;13.60;;;5.05;;
64966;SDS011;51710;38.732;-121.358;2022-10-16T09:56:39;12.43;;;5.60;;
64966;SDS011;51710;38.732;-121.358;2022-10-16T09:59:13;12.85;;;5.55;;
64966;SDS011;51710;38.732;-121.358;2022-10-16T10:01:55;11.27;;;5.25;;
64966;SDS011;51710;38.732;-121.358;2022-10-16T10:07:02;10.25;;;4.88;;
64966;SDS011;51710;38.732;-121.358;2022-10-16T10:09:37;11.15;;;4.93;;
64966;SDS011;51710;38.732;-121.358;2022-10-16T10:12:05;10.35;;;5.03;;
64966;SDS011;51710;38.732;-121.358;2022-10-16T10:14:49;11.02;;;5.43;;
64966;SDS011;51710;38.732;-121.358;2022-10-16T10:17:22;12.82;;;5.55;;
64966;SDS011;51710;38.732;-121.358;2022-10-16T10:22:24;11.40;;;5.20;;
64966;SDS011;51710;38.732;-121.358;2022-10-16T10:27:43;13.35;;;5.50;;
64966;SDS011;51710;38.732;-121.358;2022-10-16T10:30:35;10.90;;;5.85;;
64966;SDS011;51710;38.732;-121.358;2022-10-16T10:36:37;12.55;;;5.20;;
64966;SDS011;51710;38.732;-121.358;2022-10-16T10:42:08;12.45;;;5.05;;
64966;SDS011;51710;38.732;-121.358;2022-10-16T10:52:51;9.13;;;5.38;;
64966;SDS011;51710;38.732;-121.358;2022-10-16T10:55:31;12.30;;;5.28;;
64966;SDS011;51710;38.732;-121.358;2022-10-16T11:06:08;12.27;;;5.85;;
64966;SDS011;51710;38.732;-121.358;2022-10-16T11:12:12;12.15;;;5.35;;
64966;SDS011;51710;38.732;-121.358;2022-10-16T11:14:46;14.90;;;6.30;;
64966;SDS011;51710;38.732;-121.358;2022-10-16T11:17:27;17.30;;;5.47;;
64966;SDS011;51710;38.732;-121.358;2022-10-16T11:20:11;12.50;;;5.68;;
64966;SDS011;51710;38.732;-121.358;2022-10-16T11:25:59;10.95;;;5.53;;
64966;SDS011;51710;38.732;-121.358;2022-10-16T11:34:09;13.95;;;6.28;;
64966;SDS011;51710;38.732;-121.358;2022-10-16T11:36:49;12.15;;;5.22;;
64966;SDS011;51710;38.732;-121.358;2022-10-16T11:39:50;12.00;;;5.47;;
64966;SDS011;51710;38.732;-121.358;2022-10-16T11:42:27;12.70;;;5.75;;
64966;SDS011;51710;38.732;-121.358;2022-10-16T11:50:57;12.60;;;5.85;;
64966;SDS011;51710;38.732;-121.358;2022-10-16T11:56:22;11.43;;;5.28;;
64966;SDS011;51710;38.732;-121.358;2022-10-16T12:01:42;11.25;;;5.78;;
64966;SDS011;51710;38.732;-121.358;2022-10-16T12:04:21;12.18;;;5.57;;
64966;SDS011;51710;38.732;-121.358;2022-10-16T12:09:45;16.95;;;6.32;;
64966;SDS011;51710;38.732;-121.358;2022-10-16T12:12:26;13.95;;;5.45;;
64966;SDS011;51710;38.732;-121.358;2022-10-16T12:17:56;11.43;;;5.65;;
64966;SDS011;51710;38.732;-121.358;2022-10-16T12:20:41;11.85;;;5.38;;
64966;SDS011;51710;38.732;-121.358;2022-10-16T12:23:19;14.43;;;6.13;;
64966;SDS011;51710;38.732;-121.358;2022-10-16T12:25:55;15.55;;;6.20;;
64966;SDS011;51710;38.732;-121.358;2022-10-16T12:28:33;14.38;;;5.82;;
64966;SDS011;51710;38.732;-121.358;2022-10-16T12:31:03;11.63;;;5.22;;
64966;SDS011;51710;38.732;-121.358;2022-10-16T12:33:42;13.63;;;5.63;;
64966;SDS011;51710;38.732;-121.358;2022-10-16T12:36:34;15.80;;;6.10;;
64966;SDS011;51710;38.732;-121.358;2022-10-16T12:39:02;13.23;;;5.97;;
64966;SDS011;51710;38.732;-121.358;2022-10-16T12:41:31;12.70;;;5.35;;
64966;SDS011;51710;38.732;-121.358;2022-10-16T12:44:00;12.88;;;6.18;;
64966;SDS011;51710;38.732;-121.358;2022-10-16T12:51:41;13.30;;;5.65;;
64966;SDS011;51710;38.732;-121.358;2022-10-16T12:56:46;12.65;;;5.70;;
64966;SDS011;51710;38.732;-121.358;2022-10-16T13:07:56;16.98;;;5.53;;
64966;SDS011;51710;38.732;-121.358;2022-10-16T13:28:00;10.77;;;5.53;;
64966;SDS011;51710;38.732;-121.358;2022-10-16T13:30:43;13.80;;;6.70;;
64966;SDS011;51710;38.732;-121.358;2022-10-16T13:36:02;12.55;;;6.60;;
64966;SDS011;51710;38.732;-121.358;2022-10-16T13:38:31;12.82;;;6.55;;
64966;SDS011;51710;38.732;-121.358;2022-10-16T13:43:40;15.65;;;6.93;;
64966;SDS011;51710;38.732;-121.358;2022-10-16T13:46:22;13.43;;;6.05;;
64966;SDS011;51710;38.732;-121.358;2022-10-16T13:49:04;14.57;;;6.82;;
64966;SDS011;51710;38.732;-121.358;2022-10-16T13:51:41;12.48;;;6.38;;
64966;SDS011;51710;38.732;-121.358;2022-10-16T13:54:19;12.27;;;5.90;;
64966;SDS011;51710;38.732;-121.358;2022-10-16T13:56:46;12.35;;;5.80;;
64966;SDS011;51710;38.732;-121.358;2022-10-16T13:59:26;14.63;;;6.85;;
64966;SDS011;51710;38.732;-121.358;2022-10-16T14:01:58;13.82;;;7.00;;
64966;SDS011;51710;38.732;-121.358;2022-10-16T14:04:32;14.65;;;6.70;;
64966;SDS011;51710;38.732;-121.358;2022-10-16T14:06:59;11.73;;;5.88;;
64966;SDS011;51710;38.732;-121.358;2022-10-16T14:09:30;14.52;;;6.95;;
64966;SDS011;51710;38.732;-121.358;2022-10-16T14:12:02;20.48;;;7.47;;
64966;SDS011;51710;38.732;-121.358;2022-10-16T14:14:34;16.42;;;6.82;;
64966;SDS011;51710;38.732;-121.358;2022-10-16T14:17:13;13.32;;;7.20;;
64966;SDS011;51710;38.732;-121.358;2022-10-16T14:19:44;17.88;;;7.80;;
64966;SDS011;51710;38.732;-121.358;2022-10-16T14:22:57;20.02;;;7.63;;
64966;SDS011;51710;38.732;-121.358;2022-10-16T14:28:31;18.08;;;7.00;;
64966;SDS011;51710;38.732;-121.358;2022-10-16T14:30:49;15.85;;;6.82;;
64966;SDS011;51710;38.732;-121.358;2022-10-16T14:33:25;16.27;;;8.95;;
64966;SDS011;51710;38.732;-121.358;2022-10-16T14:36:03;15.77;;;7.65;;
64966;SDS011;51710;38.732;-121.358;2022-10-16T14:38:31;14.70;;;7.45;;
64966;SDS011;51710;38.732;-121.358;2022-10-16T14:40:59;18.48;;;7.88;;
64966;SDS011;51710;38.732;-121.358;2022-10-16T14:43:34;15.70;;;8.30;;
64966;SDS011;51710;38.732;-121.358;2022-10-16T14:46:04;19.05;;;8.25;;
64966;SDS011;51710;38.732;-121.358;2022-10-16T14:48:42;16.77;;;7.93;;
64966;SDS011;51710;38.732;-121.358;2022-10-16T14:51:14;19.50;;;8.52;;
64966;SDS011;51710;38.732;-121.358;2022-10-16T14:53:42;14.05;;;7.78;;
64966;SDS011;51710;38.732;-121.358;2022-10-16T14:56:14;20.63;;;9.50;;
64966;SDS011;51710;38.732;-121.358;2022-10-16T14:58:47;18.17;;;8.48;;
64966;SDS011;51710;38.732;-121.358;2022-10-16T15:01:15;14.98;;;7.63;;
64966;SDS011;51710;38.732;-121.358;2022-10-16T15:03:42;16.45;;;8.23;;
64966;SDS011;51710;38.732;-121.358;2022-10-16T15:06:13;17.02;;;8.52;;
64966;SDS011;51710;38.732;-121.358;2022-10-16T15:08:41;17.48;;;8.18;;
64966;SDS011;51710;38.732;-121.358;2022-10-16T15:11:15;22.80;;;9.10;;
64966;SDS011;51710;38.732;-121.358;2022-10-16T15:13:43;20.13;;;9.18;;
64966;SDS011;51710;38.732;-121.358;2022-10-16T15:16:11;18.67;;;9.02;;
64966;SDS011;51710;38.732;-121.358;2022-10-16T15:18:40;17.40;;;9.43;;
64966;SDS011;51710;38.732;-121.358;2022-10-16T15:21:24;16.80;;;8.63;;
64966;SDS011;51710;38.732;-121.358;2022-10-16T15:23:53;21.70;;;9.02;;
64966;SDS011;51710;38.732;-121.358;2022-10-16T15:26:25;19.13;;;9.05;;
64966;SDS011;51710;38.732;-121.358;2022-10-16T15:28:53;19.63;;;8.90;;
64966;SDS011;51710;38.732;-121.358;2022-10-16T15:31:20;20.05;;;9.05;;
64966;SDS011;51710;38.732;-121.358;2022-10-16T15:33:51;16.42;;;9.35;;
64966;SDS011;51710;38.732;-121.358;2022-10-16T15:36:27;20.58;;;9.50;;
64966;SDS011;51710;38.732;-121.358;2022-10-16T15:38:56;17.55;;;9.60;;
64966;SDS011;51710;38.732;-121.358;2022-10-16T15:41:23;21.63;;;10.02;;
64966;SDS011;51710;38.732;-121.358;2022-10-16T15:43:50;19.60;;;9.18;;
64966;SDS011;51710;38.732;-121.358;2022-10-16T15:46:18;19.25;;;9.88;;
64966;SDS011;51710;38.732;-121.358;2022-10-16T15:48:50;20.02;;;9.75;;
64966;SDS011;51710;38.732;-121.358;2022-10-16T15:51:21;18.77;;;9.70;;
64966;SDS011;51710;38.732;-121.358;2022-10-16T15:53:48;16.63;;;9.65;;
64966;SDS011;51710;38.732;-121.358;2022-10-16T15:56:16;17.33;;;8.68;;
64966;SDS011;51710;38.732;-121.358;2022-10-16T15:58:43;16.35;;;9.02;;
64966;SDS011;51710;38.732;-121.358;2022-10-16T16:01:10;16.70;;;9.55;;
64966;SDS011;51710;38.732;-121.358;2022-10-16T16:03:37;18.00;;;9.30;;
64966;SDS011;51710;38.732;-121.358;2022-10-16T16:06:10;22.95;;;10.82;;
64966;SDS011;51710;38.732;-121.358;2022-10-16T16:08:39;17.58;;;9.48;;
64966;SDS011;51710;38.732;-121.358;2022-10-16T16:11:10;21.65;;;10.40;;
64966;SDS011;51710;38.732;-121.358;2022-10-16T16:13:41;18.48;;;9.60;;
64966;SDS011;51710;38.732;-121.358;2022-10-16T16:16:08;18.42;;;9.02;;
64966;SDS011;51710;38.732;-121.358;2022-10-16T16:18:39;20.85;;;9.52;;
64966;SDS011;51710;38.732;-121.358;2022-10-16T16:21:07;17.80;;;9.00;;
64966;SDS011;51710;38.732;-121.358;2022-10-16T16:23:38;16.45;;;8.75;;
64966;SDS011;51710;38.732;-121.358;2022-10-16T16:26:06;16.60;;;9.23;;
64966;SDS011;51710;38.732;-121.358;2022-10-16T16:28:38;19.48;;;8.30;;
64966;SDS011;51710;38.732;-121.358;2022-10-16T16:31:06;16.65;;;8.50;;
64966;SDS011;51710;38.732;-121.358;2022-10-16T16:33:33;17.17;;;9.13;;
64966;SDS011;51710;38.732;-121.358;2022-10-16T16:36:01;15.35;;;8.65;;
64966;SDS011;51710;38.732;-121.358;2022-10-16T16:38:31;17.35;;;8.98;;
64966;SDS011;51710;38.732;-121.358;2022-10-16T16:40:59;20.08;;;10.25;;
64966;SDS011;51710;38.732;-121.358;2022-10-16T16:43:36;17.58;;;8.98;;